createdAt,value
2023-05-10T00:00:08.375Z,18.08
2023-05-10T00:01:08.551Z,18.05
2023-05-10T00:02:08.799Z,18.08
2023-05-10T00:03:08.980Z,18.08
2023-05-10T00:04:09.174Z,18.07
2023-05-10T00:05:09.249Z,18.05
2023-05-10T00:06:09.425Z,18.04
2023-05-10T00:07:09.596Z,18.07
2023-05-10T00:08:09.777Z,18.04
2023-05-10T00:09:09.963Z,18.02
2023-05-10T00:10:10.117Z,18.00
2023-05-10T00:11:10.298Z,18.02
2023-05-10T00:12:10.474Z,18.01
2023-05-10T00:13:10.680Z,17.97
2023-05-10T00:14:10.819Z,17.98
2023-05-10T00:15:10.969Z,17.97
2023-05-10T00:16:11.178Z,17.95
2023-05-10T00:17:11.316Z,17.97
2023-05-10T00:18:11.504Z,17.95
2023-05-10T00:19:11.701Z,17.94
2023-05-10T00:20:11.849Z,17.95
2023-05-10T00:21:12.045Z,17.89
2023-05-10T00:22:12.210Z,17.89
2023-05-10T00:23:12.392Z,17.87
2023-05-10T00:24:12.585Z,17.87
2023-05-10T00:25:12.760Z,17.89
2023-05-10T00:26:12.904Z,17.90
2023-05-10T00:27:13.120Z,17.87
2023-05-10T00:28:13.303Z,17.83
2023-05-10T00:29:13.437Z,17.82
2023-05-10T00:30:13.670Z,17.85
2023-05-10T00:31:13.770Z,17.86
2023-05-10T00:32:14.008Z,17.82
2023-05-10T00:33:14.159Z,17.80
2023-05-10T00:34:14.345Z,17.80
2023-05-10T00:35:14.477Z,17.80
2023-05-10T00:36:14.658Z,17.79
2023-05-10T00:37:14.886Z,17.80
2023-05-10T00:38:15.022Z,17.76
2023-05-10T00:39:15.235Z,17.75
2023-05-10T00:40:15.577Z,17.75
2023-05-10T00:41:15.590Z,17.72
2023-05-10T00:42:15.797Z,17.75
2023-05-10T00:43:15.948Z,17.72
2023-05-10T00:44:16.118Z,17.70
2023-05-10T00:45:16.256Z,17.70
2023-05-10T00:46:16.472Z,17.70
2023-05-10T00:47:16.622Z,17.67
2023-05-10T00:48:16.828Z,17.65
2023-05-10T00:49:16.973Z,17.62
2023-05-10T00:50:17.271Z,17.65
2023-05-10T00:51:17.315Z,17.64
2023-05-10T00:52:17.462Z,17.60
2023-05-10T00:53:17.650Z,17.58
2023-05-10T00:54:17.850Z,17.60
2023-05-10T00:55:18.007Z,17.58
2023-05-10T00:56:18.193Z,17.57
2023-05-10T00:57:18.370Z,17.60
2023-05-10T00:58:18.588Z,17.53
2023-05-10T00:59:18.762Z,17.53
2023-05-10T01:00:18.890Z,17.55
2023-05-10T01:01:19.126Z,17.50
2023-05-10T01:02:19.255Z,17.50
2023-05-10T01:03:19.547Z,17.47
2023-05-10T01:04:19.603Z,17.47
2023-05-10T01:05:19.827Z,17.50
2023-05-10T01:06:19.972Z,17.46
2023-05-10T01:07:20.153Z,17.43
2023-05-10T01:08:20.346Z,17.42
2023-05-10T01:09:20.486Z,17.40
2023-05-10T01:10:20.668Z,17.39
2023-05-10T01:11:20.845Z,17.38
2023-05-10T01:12:21.073Z,17.40
2023-05-10T01:13:21.255Z,17.34
2023-05-10T01:14:21.418Z,17.38
2023-05-10T01:15:21.578Z,17.39
2023-05-10T01:16:21.804Z,17.38
2023-05-10T01:17:21.974Z,17.38
2023-05-10T01:18:22.105Z,17.32
2023-05-10T01:19:22.284Z,17.34
2023-05-10T01:20:22.445Z,17.32
2023-05-10T01:21:22.579Z,17.32
2023-05-10T01:22:22.773Z,17.28
2023-05-10T01:23:22.964Z,17.30
2023-05-10T01:24:23.143Z,17.31
2023-05-10T01:25:23.331Z,17.25
2023-05-10T01:26:23.472Z,17.28
2023-05-10T01:27:23.648Z,17.27
2023-05-10T01:28:23.823Z,17.25
2023-05-10T01:29:24.025Z,17.23
2023-05-10T01:30:24.395Z,17.24
2023-05-10T01:31:24.482Z,17.21
2023-05-10T01:32:24.549Z,17.17
2023-05-10T01:33:24.729Z,17.24
2023-05-10T01:34:24.940Z,17.16
2023-05-10T01:35:25.087Z,17.17
2023-05-10T01:36:25.295Z,17.17
2023-05-10T01:37:25.441Z,17.20
2023-05-10T01:38:25.656Z,17.15
2023-05-10T01:39:25.802Z,17.15
2023-05-10T01:40:25.974Z,17.15
2023-05-10T01:41:26.162Z,17.13
2023-05-10T01:42:26.349Z,17.12
2023-05-10T01:43:26.505Z,17.09
2023-05-10T01:44:26.677Z,17.07
2023-05-10T01:45:26.832Z,17.10
2023-05-10T01:46:27.026Z,17.07
2023-05-10T01:47:27.190Z,17.02
2023-05-10T01:48:27.354Z,17.05
2023-05-10T01:49:27.569Z,17.02
2023-05-10T01:50:27.719Z,16.99
2023-05-10T01:51:27.934Z,16.96
2023-05-10T01:52:28.126Z,16.97
2023-05-10T01:53:28.256Z,16.94
2023-05-10T01:54:28.453Z,16.93
2023-05-10T01:55:28.603Z,16.90
2023-05-10T01:56:28.801Z,16.91
2023-05-10T01:57:28.972Z,16.90
2023-05-10T01:58:29.133Z,16.87
2023-05-10T01:59:29.333Z,16.86
2023-05-10T02:00:29.539Z,16.87
2023-05-10T02:01:29.692Z,16.89
2023-05-10T02:02:29.877Z,16.87
2023-05-10T02:03:30.106Z,16.86
2023-05-10T02:04:30.237Z,16.84
2023-05-10T02:05:30.397Z,16.86
2023-05-10T02:06:30.567Z,16.78
2023-05-10T02:07:30.776Z,16.83
2023-05-10T02:08:30.925Z,16.79
2023-05-10T02:09:31.089Z,16.76
2023-05-10T02:10:31.266Z,16.79
2023-05-10T02:11:31.464Z,16.78
2023-05-10T02:12:31.661Z,16.74
2023-05-10T02:13:31.827Z,16.74
2023-05-10T02:14:31.984Z,16.74
2023-05-10T02:15:32.165Z,16.71
2023-05-10T02:16:32.374Z,16.69
2023-05-10T02:17:32.572Z,16.68
2023-05-10T02:18:32.678Z,16.66
2023-05-10T02:19:32.861Z,16.65
2023-05-10T02:20:33.033Z,16.66
2023-05-10T02:21:33.234Z,16.60
2023-05-10T02:22:33.431Z,16.62
2023-05-10T02:23:33.570Z,16.59
2023-05-10T02:24:33.802Z,16.57
2023-05-10T02:25:33.923Z,16.56
2023-05-10T02:26:34.112Z,16.57
2023-05-10T02:27:34.310Z,16.56
2023-05-10T02:28:34.504Z,16.53
2023-05-10T02:29:34.670Z,16.53
2023-05-10T02:30:34.873Z,16.51
2023-05-10T02:31:35.053Z,16.46
2023-05-10T02:32:35.205Z,16.47
2023-05-10T02:33:35.340Z,16.44
2023-05-10T02:34:35.524Z,16.46
2023-05-10T02:35:35.693Z,16.42
2023-05-10T02:36:35.876Z,16.42
2023-05-10T02:37:36.064Z,16.42
2023-05-10T02:38:36.213Z,16.41
2023-05-10T02:39:36.414Z,16.38
2023-05-10T02:40:36.581Z,16.38
2023-05-10T02:41:36.750Z,16.39
2023-05-10T02:42:36.967Z,16.38
2023-05-10T02:43:37.116Z,16.34
2023-05-10T02:44:37.306Z,16.29
2023-05-10T02:45:37.490Z,16.32
2023-05-10T02:46:37.717Z,16.31
2023-05-10T02:47:37.959Z,16.28
2023-05-10T02:48:38.054Z,16.23
2023-05-10T02:49:38.243Z,16.26
2023-05-10T02:50:38.399Z,16.23
2023-05-10T02:51:38.542Z,16.25
2023-05-10T02:52:38.753Z,16.25
2023-05-10T02:53:38.921Z,16.25
2023-05-10T02:54:39.097Z,16.21
2023-05-10T02:55:39.268Z,16.21
2023-05-10T02:56:39.451Z,16.19
2023-05-10T02:57:39.600Z,16.19
2023-05-10T02:58:39.780Z,16.17
2023-05-10T02:59:39.930Z,16.14
2023-05-10T03:00:40.106Z,16.17
2023-05-10T03:01:40.442Z,16.13
2023-05-10T03:02:40.481Z,16.13
2023-05-10T03:03:40.654Z,16.13
2023-05-10T03:04:40.873Z,16.10
2023-05-10T03:05:41.008Z,16.07
2023-05-10T03:06:41.200Z,16.04
2023-05-10T03:07:41.346Z,16.09
2023-05-10T03:08:41.526Z,16.07
2023-05-10T03:09:41.702Z,16.04
2023-05-10T03:10:41.925Z,16.04
2023-05-10T03:11:42.071Z,16.01
2023-05-10T03:12:42.250Z,16.01
2023-05-10T03:13:42.399Z,16.02
2023-05-10T03:14:42.595Z,15.95
2023-05-10T03:15:42.778Z,16.01
2023-05-10T03:16:44.930Z,15.98
2023-05-10T03:17:43.108Z,15.95
2023-05-10T03:18:43.312Z,15.96
2023-05-10T03:19:43.475Z,15.91
2023-05-10T03:20:43.652Z,15.92
2023-05-10T03:21:43.808Z,15.89
2023-05-10T03:22:43.979Z,15.89
2023-05-10T03:23:44.183Z,15.87
2023-05-10T03:24:44.308Z,15.87
2023-05-10T03:25:44.495Z,15.87
2023-05-10T03:26:44.671Z,15.86
2023-05-10T03:27:44.853Z,15.83
2023-05-10T03:28:44.999Z,15.87
2023-05-10T03:29:45.174Z,15.86
2023-05-10T03:30:45.349Z,15.86
2023-05-10T03:31:45.592Z,15.86
2023-05-10T03:32:45.742Z,15.84
2023-05-10T03:33:45.879Z,15.83
2023-05-10T03:34:46.025Z,15.83
2023-05-10T03:35:46.192Z,15.84
2023-05-10T03:36:46.353Z,15.84
2023-05-10T03:37:46.561Z,15.86
2023-05-10T03:38:46.697Z,15.86
2023-05-10T03:39:46.852Z,15.81
2023-05-10T03:40:47.053Z,15.84
2023-05-10T03:41:47.198Z,15.79
2023-05-10T03:42:47.408Z,15.83
2023-05-10T03:43:47.540Z,15.79
2023-05-10T03:44:47.713Z,15.80
2023-05-10T03:45:47.891Z,15.77
2023-05-10T03:46:48.083Z,15.80
2023-05-10T03:47:48.242Z,15.77
2023-05-10T03:48:48.416Z,15.76
2023-05-10T03:49:48.554Z,15.79
2023-05-10T03:50:48.755Z,15.76
2023-05-10T03:51:48.912Z,15.76
2023-05-10T03:52:49.087Z,15.76
2023-05-10T03:53:49.278Z,15.77
2023-05-10T03:54:49.444Z,15.77
2023-05-10T03:55:49.612Z,15.73
2023-05-10T03:56:49.812Z,15.73
2023-05-10T03:57:49.999Z,15.73
2023-05-10T03:58:50.170Z,15.74
2023-05-10T03:59:50.375Z,15.74
2023-05-10T04:00:50.545Z,15.73
2023-05-10T04:01:50.785Z,15.71
2023-05-10T04:02:51.015Z,15.73
2023-05-10T04:03:51.169Z,15.71
2023-05-10T04:04:51.239Z,15.70
2023-05-10T04:05:51.520Z,15.70
2023-05-10T04:06:51.564Z,15.71
2023-05-10T04:07:51.764Z,15.71
2023-05-10T04:08:51.950Z,15.74
2023-05-10T04:09:52.090Z,15.74
2023-05-10T04:10:52.316Z,15.71
2023-05-10T04:11:52.428Z,15.71
2023-05-10T04:12:52.703Z,15.73
2023-05-10T04:13:52.801Z,15.73
2023-05-10T04:14:53.003Z,15.73
2023-05-10T04:15:53.173Z,15.76
2023-05-10T04:16:53.409Z,15.76
2023-05-10T04:17:53.624Z,15.73
2023-05-10T04:18:53.718Z,15.77
2023-05-10T04:19:53.910Z,15.76
2023-05-10T04:20:54.013Z,15.73
2023-05-10T04:21:54.292Z,15.74
2023-05-10T04:22:54.379Z,15.73
2023-05-10T04:23:54.573Z,15.74
2023-05-10T04:24:54.769Z,15.74
2023-05-10T04:25:54.932Z,15.76
2023-05-10T04:26:57.529Z,15.77
2023-05-10T04:27:55.312Z,15.77
2023-05-10T04:28:55.479Z,15.77
2023-05-10T04:29:55.635Z,15.77
2023-05-10T04:30:55.870Z,15.79
2023-05-10T04:31:56.014Z,15.77
2023-05-10T04:32:56.214Z,15.80
2023-05-10T04:33:56.330Z,15.83
2023-05-10T04:34:56.533Z,15.80
2023-05-10T04:35:56.695Z,15.81
2023-05-10T04:36:56.859Z,15.81
2023-05-10T04:37:57.012Z,15.81
2023-05-10T04:38:57.178Z,15.80
2023-05-10T04:39:57.367Z,15.83
2023-05-10T04:40:57.508Z,15.84
2023-05-10T04:41:57.703Z,15.84
2023-05-10T04:42:57.824Z,15.84
2023-05-10T04:43:57.988Z,15.86
2023-05-10T04:44:58.158Z,15.84
2023-05-10T04:45:58.340Z,15.86
2023-05-10T04:46:58.516Z,15.89
2023-05-10T04:47:58.731Z,15.91
2023-05-10T04:48:58.869Z,15.91
2023-05-10T04:49:59.060Z,15.94
2023-05-10T04:50:59.203Z,15.91
2023-05-10T04:51:59.383Z,15.94
2023-05-10T04:52:59.527Z,15.96
2023-05-10T04:54:05.990Z,15.98
2023-05-10T04:55:00.936Z,15.98
2023-05-10T04:56:00.026Z,15.95
2023-05-10T04:57:00.201Z,15.98
2023-05-10T04:58:00.349Z,15.99
2023-05-10T04:59:00.551Z,16.02
2023-05-10T05:00:00.713Z,16.04
2023-05-10T05:01:00.899Z,16.05
2023-05-10T05:02:01.110Z,16.04
2023-05-10T05:03:01.327Z,16.10
2023-05-10T05:04:01.469Z,16.10
2023-05-10T05:05:01.575Z,16.13
2023-05-10T05:06:01.763Z,16.13
2023-05-10T05:07:01.926Z,16.17
2023-05-10T05:08:02.073Z,16.14
2023-05-10T05:09:02.238Z,16.16
2023-05-10T05:10:02.427Z,16.20
2023-05-10T05:11:02.636Z,16.21
2023-05-10T05:12:02.762Z,16.25
2023-05-10T05:13:02.980Z,16.21
2023-05-10T05:14:03.118Z,16.23
2023-05-10T05:15:03.276Z,16.28
2023-05-10T05:16:03.526Z,16.26
2023-05-10T05:17:03.641Z,16.31
2023-05-10T05:18:03.803Z,16.31
2023-05-10T05:19:03.957Z,16.34
2023-05-10T05:20:04.125Z,16.32
2023-05-10T05:21:04.316Z,16.36
2023-05-10T05:22:04.493Z,16.35
2023-05-10T05:23:04.669Z,16.38
2023-05-10T05:24:04.916Z,16.39
2023-05-10T05:25:05.023Z,16.42
2023-05-10T05:26:05.169Z,16.44
2023-05-10T05:27:05.329Z,16.44
2023-05-10T05:28:05.483Z,16.47
2023-05-10T05:29:05.651Z,16.49
2023-05-10T05:30:05.881Z,16.53
2023-05-10T05:31:06.011Z,16.53
2023-05-10T05:32:06.251Z,16.51
2023-05-10T05:33:06.451Z,16.54
2023-05-10T05:34:06.533Z,16.57
2023-05-10T05:35:06.720Z,16.59
2023-05-10T05:36:07.039Z,16.57
2023-05-10T05:37:07.033Z,16.64
2023-05-10T05:38:07.249Z,16.62
2023-05-10T05:39:07.396Z,16.68
2023-05-10T05:40:07.588Z,16.68
2023-05-10T05:41:07.752Z,16.69
2023-05-10T05:42:07.912Z,16.69
2023-05-10T05:43:08.056Z,16.74
2023-05-10T05:44:08.244Z,16.75
2023-05-10T05:45:08.420Z,16.75
2023-05-10T05:46:08.624Z,16.79
2023-05-10T05:47:08.773Z,16.78
2023-05-10T05:48:09.027Z,16.82
2023-05-10T05:49:09.082Z,16.87
2023-05-10T05:50:09.336Z,16.87
2023-05-10T05:51:09.439Z,16.87
2023-05-10T05:52:09.595Z,16.89
2023-05-10T05:53:09.758Z,16.93
2023-05-10T05:54:09.963Z,16.91
2023-05-10T05:55:10.142Z,16.93
2023-05-10T05:56:10.275Z,16.97
2023-05-10T05:57:10.436Z,17.01
2023-05-10T05:58:10.649Z,17.01
2023-05-10T05:59:10.767Z,17.05
2023-05-10T06:00:10.938Z,17.07
2023-05-10T06:01:11.079Z,17.07
2023-05-10T06:02:11.286Z,17.15
2023-05-10T06:03:11.510Z,17.15
2023-05-10T06:04:11.660Z,17.16
2023-05-10T06:05:11.785Z,17.21
2023-05-10T06:06:11.988Z,17.17
2023-05-10T06:07:12.102Z,17.21
2023-05-10T06:08:12.259Z,17.27
2023-05-10T06:09:12.466Z,17.27
2023-05-10T06:10:12.652Z,17.28
2023-05-10T06:11:12.809Z,17.31
2023-05-10T06:12:12.991Z,17.32
2023-05-10T06:13:13.180Z,17.39
2023-05-10T06:14:13.339Z,17.39
2023-05-10T06:15:13.729Z,17.43
2023-05-10T06:16:13.741Z,17.45
2023-05-10T06:17:13.840Z,17.47
2023-05-10T06:18:14.042Z,17.47
2023-05-10T06:19:14.191Z,17.52
2023-05-10T06:20:14.388Z,17.52
2023-05-10T06:21:14.530Z,17.55
2023-05-10T06:22:14.714Z,17.60
2023-05-10T06:23:14.881Z,17.61
2023-05-10T06:24:15.070Z,17.62
2023-05-10T06:25:15.370Z,17.64
2023-05-10T06:26:15.409Z,17.70
2023-05-10T06:27:15.575Z,17.72
2023-05-10T06:28:15.735Z,17.72
2023-05-10T06:29:15.920Z,17.76
2023-05-10T06:30:16.103Z,17.80
2023-05-10T06:31:16.357Z,17.83
2023-05-10T06:32:16.423Z,17.85
2023-05-10T06:33:16.575Z,17.90
2023-05-10T06:34:16.773Z,17.95
2023-05-10T06:35:17.078Z,18.00
2023-05-10T06:36:17.096Z,18.02
2023-05-10T06:37:17.302Z,18.08
2023-05-10T06:38:17.425Z,18.13
2023-05-10T06:39:17.605Z,18.17
2023-05-10T06:40:17.769Z,18.25
2023-05-10T06:41:17.942Z,18.30
2023-05-10T06:42:18.115Z,18.33
2023-05-10T06:43:18.290Z,18.40
2023-05-10T06:44:18.570Z,18.41
2023-05-10T06:45:18.993Z,18.48
2023-05-10T06:46:18.905Z,18.51
2023-05-10T06:47:18.993Z,18.58
2023-05-10T06:48:19.222Z,18.66
2023-05-10T06:49:19.324Z,18.66
2023-05-10T06:50:19.489Z,18.76
2023-05-10T06:51:19.658Z,18.76
2023-05-10T06:52:19.868Z,18.82
2023-05-10T06:53:19.996Z,18.88
2023-05-10T06:54:20.186Z,18.93
2023-05-10T06:55:20.358Z,18.98
2023-05-10T06:56:20.551Z,19.00
2023-05-10T06:57:31.366Z,19.05
2023-05-10T06:58:21.906Z,19.11
2023-05-10T06:59:21.147Z,19.13
2023-05-10T07:00:21.577Z,19.16
2023-05-10T07:01:21.552Z,19.16
2023-05-10T07:02:21.681Z,19.24
2023-05-10T07:03:21.867Z,19.27
2023-05-10T07:04:22.013Z,19.31
2023-05-10T07:05:22.363Z,19.31
2023-05-10T07:06:32.766Z,19.36
2023-05-10T07:07:23.527Z,19.36
2023-05-10T07:08:22.745Z,19.42
2023-05-10T07:09:22.899Z,19.46
2023-05-10T07:10:23.063Z,19.48
2023-05-10T07:11:23.222Z,19.52
2023-05-10T07:12:23.407Z,19.52
2023-05-10T07:13:23.649Z,19.55
2023-05-10T07:14:23.716Z,19.63
2023-05-10T07:15:23.894Z,19.63
2023-05-10T07:16:24.106Z,19.70
2023-05-10T07:17:24.225Z,19.70
2023-05-10T07:18:24.425Z,19.71
2023-05-10T07:19:24.560Z,19.75
2023-05-10T07:20:24.708Z,19.77
2023-05-10T07:21:24.992Z,19.77
2023-05-10T07:22:25.071Z,19.82
2023-05-10T07:23:25.214Z,19.85
2023-05-10T07:24:25.376Z,19.85
2023-05-10T07:25:25.538Z,19.89
2023-05-10T07:26:25.732Z,19.93
2023-05-10T07:27:25.920Z,19.98
2023-05-10T07:28:26.061Z,19.99
2023-05-10T07:29:26.228Z,20.04
2023-05-10T07:30:26.460Z,20.04
2023-05-10T07:31:26.586Z,20.06
2023-05-10T07:32:26.914Z,20.09
2023-05-10T07:33:26.925Z,20.14
2023-05-10T07:34:27.097Z,20.14
2023-05-10T07:35:27.253Z,20.19
2023-05-10T07:36:27.451Z,20.23
2023-05-10T07:37:27.628Z,20.21
2023-05-10T07:38:27.792Z,20.24
2023-05-10T07:39:28.434Z,20.30
2023-05-10T07:40:28.104Z,20.30
2023-05-10T07:41:28.291Z,20.30
2023-05-10T07:42:28.480Z,20.35
2023-05-10T07:43:28.669Z,20.36
2023-05-10T07:44:28.855Z,20.41
2023-05-10T07:45:29.037Z,20.46
2023-05-10T07:46:29.223Z,20.46
2023-05-10T07:47:29.448Z,20.51
2023-05-10T07:48:29.570Z,20.52
2023-05-10T07:49:29.729Z,20.56
2023-05-10T07:50:29.896Z,20.59
2023-05-10T07:51:30.067Z,20.57
2023-05-10T07:52:30.219Z,20.63
2023-05-10T07:53:30.397Z,20.66
2023-05-10T07:54:30.559Z,20.69
2023-05-10T07:55:30.709Z,20.74
2023-05-10T07:56:30.910Z,20.76
2023-05-10T07:57:31.073Z,20.78
2023-05-10T07:58:31.272Z,20.79
2023-05-10T07:59:31.437Z,20.81
2023-05-10T08:00:31.628Z,20.86
2023-05-10T08:01:31.782Z,20.88
2023-05-10T08:02:32.037Z,20.94
2023-05-10T08:03:32.178Z,20.96
2023-05-10T08:04:32.302Z,21.00
2023-05-10T08:05:34.632Z,21.04
2023-05-10T08:06:32.630Z,21.04
2023-05-10T08:07:32.780Z,21.11
2023-05-10T08:08:32.948Z,21.11
2023-05-10T08:09:33.109Z,21.14
2023-05-10T08:10:33.286Z,21.18
2023-05-10T08:11:35.009Z,21.21
2023-05-10T08:12:33.637Z,21.23
2023-05-10T08:13:33.814Z,21.23
2023-05-10T08:14:33.993Z,21.31
2023-05-10T08:15:34.190Z,21.35
2023-05-10T08:16:34.381Z,21.41
2023-05-10T08:17:34.529Z,21.38
2023-05-10T08:18:34.690Z,21.44
2023-05-10T08:19:34.853Z,21.47
2023-05-10T08:20:35.033Z,21.52
2023-05-10T08:21:35.188Z,21.52
2023-05-10T08:22:35.389Z,21.57
2023-05-10T08:23:35.551Z,21.62
2023-05-10T08:24:35.802Z,21.67
2023-05-10T08:25:35.875Z,21.63
2023-05-10T08:26:36.039Z,21.71
2023-05-10T08:27:36.194Z,21.77
2023-05-10T08:28:36.406Z,21.77
2023-05-10T08:29:48.864Z,21.81
2023-05-10T08:30:37.775Z,21.81
2023-05-10T08:31:37.070Z,21.86
2023-05-10T08:32:37.124Z,21.93
2023-05-10T08:33:37.255Z,21.93
2023-05-10T08:34:37.451Z,21.93
2023-05-10T08:35:37.645Z,22.02
2023-05-10T08:36:37.790Z,22.04
2023-05-10T08:37:37.942Z,22.11
2023-05-10T08:38:38.177Z,22.12
2023-05-10T08:39:38.398Z,22.16
2023-05-10T08:40:38.501Z,22.15
2023-05-10T08:41:38.655Z,22.23
2023-05-10T08:42:38.955Z,22.26
2023-05-10T08:43:39.010Z,22.26
2023-05-10T08:44:39.160Z,22.29
2023-05-10T08:45:39.340Z,22.34
2023-05-10T08:46:39.567Z,22.37
2023-05-10T08:47:39.673Z,22.44
2023-05-10T08:48:39.836Z,22.45
2023-05-10T08:49:39.990Z,22.48
2023-05-10T08:50:40.173Z,22.52
2023-05-10T08:51:41.776Z,22.52
2023-05-10T08:52:40.530Z,22.61
2023-05-10T08:53:40.641Z,22.63
2023-05-10T08:54:40.821Z,22.67
2023-05-10T08:55:40.972Z,22.75
2023-05-10T08:56:41.140Z,22.79
2023-05-10T08:57:41.309Z,22.82
2023-05-10T08:58:41.493Z,22.84
2023-05-10T08:59:41.661Z,22.90
2023-05-10T09:00:41.893Z,22.94
2023-05-10T09:01:41.988Z,22.94
2023-05-10T09:02:42.161Z,22.99
2023-05-10T09:03:42.342Z,23.04
2023-05-10T09:04:42.547Z,23.11
2023-05-10T09:05:42.659Z,23.17
2023-05-10T09:06:42.839Z,23.17
2023-05-10T09:07:43.002Z,23.19
2023-05-10T09:08:43.167Z,23.26
2023-05-10T09:09:43.365Z,23.30
2023-05-10T09:10:43.554Z,23.30
2023-05-10T09:11:43.708Z,23.36
2023-05-10T09:12:43.891Z,23.39
2023-05-10T09:13:44.054Z,23.49
2023-05-10T09:14:44.224Z,23.49
2023-05-10T09:15:44.407Z,23.53
2023-05-10T09:16:44.582Z,23.59
2023-05-10T09:17:44.726Z,23.66
2023-05-10T09:18:44.939Z,23.69
2023-05-10T09:19:45.021Z,23.72
2023-05-10T09:20:45.249Z,23.75
2023-05-10T09:21:45.377Z,23.79
2023-05-10T09:22:45.571Z,23.83
2023-05-10T09:23:48.129Z,23.91
2023-05-10T09:24:45.934Z,23.94
2023-05-10T09:25:46.092Z,24.01
2023-05-10T09:26:46.284Z,24.03
2023-05-10T09:27:46.455Z,24.09
2023-05-10T09:28:46.600Z,24.16
2023-05-10T09:29:46.800Z,24.20
2023-05-10T09:30:46.973Z,24.23
2023-05-10T09:31:47.117Z,24.31
2023-05-10T09:32:47.299Z,24.36
2023-05-10T09:33:47.502Z,24.42
2023-05-10T09:34:47.666Z,24.46
2023-05-10T09:35:47.813Z,24.47
2023-05-10T09:36:47.992Z,24.54
2023-05-10T09:37:48.169Z,24.57
2023-05-10T09:38:48.341Z,24.61
2023-05-10T09:39:48.552Z,24.68
2023-05-10T09:40:48.692Z,24.72
2023-05-10T09:41:48.855Z,24.75
2023-05-10T09:42:49.043Z,24.83
2023-05-10T09:43:49.265Z,24.87
2023-05-10T09:44:49.419Z,24.94
2023-05-10T09:45:49.624Z,24.96
2023-05-10T09:46:49.709Z,25.03
2023-05-10T09:47:49.966Z,25.09
2023-05-10T09:48:50.057Z,25.15
2023-05-10T09:49:50.289Z,25.24
2023-05-10T09:50:50.406Z,25.25
2023-05-10T09:51:50.592Z,25.33
2023-05-10T09:52:50.772Z,25.38
2023-05-10T09:53:50.903Z,25.42
2023-05-10T09:54:51.072Z,25.52
2023-05-10T09:55:51.250Z,25.58
2023-05-10T09:56:51.424Z,25.65
2023-05-10T09:57:51.564Z,25.69
2023-05-10T09:58:51.726Z,25.77
2023-05-10T09:59:51.907Z,25.81
2023-05-10T10:00:52.086Z,25.87
2023-05-10T10:01:52.340Z,25.95
2023-05-10T10:02:52.512Z,26.01
2023-05-10T10:03:52.582Z,26.06
2023-05-10T10:04:52.836Z,26.14
2023-05-10T10:05:52.984Z,26.21
2023-05-10T10:06:53.144Z,26.30
2023-05-10T10:07:53.302Z,26.35
2023-05-10T10:08:54.962Z,26.40
2023-05-10T10:09:53.662Z,26.51
2023-05-10T10:10:56.354Z,26.57
2023-05-10T10:11:53.995Z,26.61
2023-05-10T10:12:54.165Z,26.70
2023-05-10T10:13:54.346Z,26.76
2023-05-10T10:14:54.536Z,26.80
2023-05-10T10:15:54.693Z,26.88
2023-05-10T10:17:05.701Z,26.92
2023-05-10T10:17:56.149Z,26.98
2023-05-10T10:18:55.263Z,27.05
2023-05-10T10:19:55.368Z,27.14
2023-05-10T10:20:55.531Z,27.20
2023-05-10T10:21:55.715Z,27.25
2023-05-10T10:22:55.855Z,27.37
2023-05-10T10:23:56.072Z,27.48
2023-05-10T10:24:56.256Z,27.71
2023-05-10T10:25:56.378Z,28.01
2023-05-10T10:26:56.527Z,28.28
2023-05-10T10:27:56.709Z,28.45
2023-05-10T10:28:56.868Z,28.53
2023-05-10T10:29:57.082Z,28.57
2023-05-10T10:30:57.187Z,28.59
2023-05-10T10:31:57.405Z,28.57
2023-05-10T10:32:57.544Z,28.61
2023-05-10T10:33:57.753Z,28.64
2023-05-10T10:34:57.975Z,28.66
2023-05-10T10:35:58.069Z,28.68
2023-05-10T10:36:58.245Z,28.72
2023-05-10T10:37:58.433Z,28.72
2023-05-10T10:38:58.634Z,28.76
2023-05-10T10:39:58.828Z,28.76
2023-05-10T10:40:58.972Z,28.78
2023-05-10T10:41:59.115Z,28.78
2023-05-10T10:42:59.300Z,28.82
2023-05-10T10:43:59.518Z,28.83
2023-05-10T10:44:59.643Z,28.82
2023-05-10T10:45:59.828Z,28.85
2023-05-10T10:47:00.063Z,28.86
2023-05-10T10:48:00.232Z,28.91
2023-05-10T10:49:00.339Z,28.97
2023-05-10T10:50:00.542Z,28.98
2023-05-10T10:51:00.677Z,28.98
2023-05-10T10:52:00.843Z,29.03
2023-05-10T10:53:01.075Z,29.05
2023-05-10T10:54:01.218Z,29.10
2023-05-10T10:55:01.460Z,29.15
2023-05-10T10:56:01.559Z,29.20
2023-05-10T10:57:01.713Z,29.28
2023-05-10T10:58:02.064Z,29.34
2023-05-10T10:59:02.057Z,29.40
2023-05-10T11:00:02.272Z,29.45
2023-05-10T11:01:02.425Z,29.53
2023-05-10T11:02:02.587Z,29.56
2023-05-10T11:03:02.819Z,29.62
2023-05-10T11:04:02.984Z,29.65
2023-05-10T11:05:03.135Z,29.75
2023-05-10T11:06:03.306Z,29.82
2023-05-10T11:07:03.458Z,29.85
2023-05-10T11:08:03.653Z,29.94
2023-05-10T11:09:03.783Z,30.03
2023-05-10T11:10:03.990Z,30.09
2023-05-10T11:11:04.156Z,30.14
2023-05-10T11:12:04.298Z,30.21
2023-05-10T11:13:04.470Z,30.27
2023-05-10T11:14:04.685Z,30.35
2023-05-10T11:15:04.817Z,30.39
2023-05-10T11:16:04.999Z,30.49
2023-05-10T11:17:05.227Z,30.58
2023-05-10T11:18:05.409Z,30.65
2023-05-10T11:19:05.607Z,30.73
2023-05-10T11:20:05.710Z,30.78
2023-05-10T11:21:05.880Z,30.88
2023-05-10T11:22:06.060Z,30.96
2023-05-10T11:23:06.255Z,31.05
2023-05-10T11:24:06.506Z,31.12
2023-05-10T11:25:06.617Z,31.21
2023-05-10T11:26:06.788Z,31.29
2023-05-10T11:27:06.962Z,31.37
2023-05-10T11:28:07.163Z,31.44
2023-05-10T11:29:07.309Z,31.50
2023-05-10T11:30:07.508Z,31.65
2023-05-10T11:31:07.752Z,31.68
2023-05-10T11:32:07.831Z,31.75
2023-05-10T11:33:08.069Z,31.87
2023-05-10T11:34:08.183Z,31.93
2023-05-10T11:35:08.366Z,32.00
2023-05-10T11:36:08.526Z,32.08
2023-05-10T11:37:08.688Z,32.19
2023-05-10T11:38:08.872Z,32.28
2023-05-10T11:39:09.048Z,32.36
2023-05-10T11:40:09.213Z,32.45
2023-05-10T11:41:09.412Z,32.49
2023-05-10T11:42:09.595Z,32.63
2023-05-10T11:43:09.730Z,32.69
2023-05-10T11:44:09.960Z,32.76
2023-05-10T11:45:10.098Z,32.87
2023-05-10T11:46:10.317Z,32.94
2023-05-10T11:47:10.486Z,33.00
2023-05-10T11:48:10.656Z,33.10
2023-05-10T11:49:10.800Z,33.18
2023-05-10T11:50:10.977Z,33.25
2023-05-10T11:51:11.156Z,33.32
2023-05-10T11:52:11.338Z,33.37
2023-05-10T11:53:11.512Z,33.43
2023-05-10T11:54:11.710Z,33.47
2023-05-10T11:55:11.852Z,33.55
2023-05-10T11:56:12.031Z,33.61
2023-05-10T11:57:12.225Z,33.69
2023-05-10T11:58:12.369Z,33.76
2023-05-10T11:59:12.534Z,33.84
2023-05-10T12:00:12.708Z,33.87
2023-05-10T12:01:12.860Z,33.96
2023-05-10T12:02:13.067Z,34.05
2023-05-10T12:03:13.261Z,34.13
2023-05-10T12:04:13.609Z,34.15
2023-05-10T12:05:13.611Z,34.25
2023-05-10T12:06:13.763Z,34.30
2023-05-10T12:07:13.937Z,34.38
2023-05-10T12:08:14.103Z,34.43
2023-05-10T12:09:14.290Z,34.50
2023-05-10T12:10:14.580Z,34.59
2023-05-10T12:11:14.647Z,34.62
2023-05-10T12:12:14.829Z,34.69
2023-05-10T12:13:15.015Z,34.74
2023-05-10T12:14:15.169Z,34.84
2023-05-10T12:15:15.341Z,34.91
2023-05-10T12:16:15.539Z,34.99
2023-05-10T12:17:15.717Z,35.09
2023-05-10T12:18:15.921Z,35.15
2023-05-10T12:19:16.046Z,35.20
2023-05-10T12:20:16.525Z,35.30
2023-05-10T12:21:16.413Z,35.38
2023-05-10T12:22:16.611Z,35.46
2023-05-10T12:23:16.727Z,35.53
2023-05-10T12:24:16.914Z,35.59
2023-05-10T12:25:17.054Z,35.69
2023-05-10T12:26:17.251Z,35.77
2023-05-10T12:27:17.413Z,35.85
2023-05-10T12:28:17.614Z,35.96
2023-05-10T12:29:17.893Z,36.00
2023-05-10T12:30:18.135Z,36.07
2023-05-10T12:31:18.166Z,36.18
2023-05-10T12:32:18.290Z,36.25
2023-05-10T12:33:18.453Z,36.34
2023-05-10T12:34:18.658Z,36.43
2023-05-10T12:35:18.831Z,36.53
2023-05-10T12:36:19.019Z,36.65
2023-05-10T12:37:19.135Z,36.70
2023-05-10T12:38:19.342Z,36.77
2023-05-10T12:39:19.506Z,36.90
2023-05-10T12:40:19.702Z,37.00
2023-05-10T12:41:19.946Z,37.07
2023-05-10T12:42:20.037Z,37.17
2023-05-10T12:43:20.199Z,37.24
2023-05-10T12:44:20.355Z,37.34
2023-05-10T12:45:20.518Z,37.47
2023-05-10T12:46:20.832Z,37.54
2023-05-10T12:47:20.853Z,37.63
2023-05-10T12:48:21.056Z,37.75
2023-05-10T12:49:21.233Z,37.82
2023-05-10T12:50:21.385Z,37.96
2023-05-10T12:51:21.648Z,38.03
2023-05-10T12:52:21.726Z,38.15
2023-05-10T12:53:21.870Z,38.24
2023-05-10T12:54:22.064Z,38.41